createdAt,value
2018-04-07T00:01:47.806Z,101700.52
2018-04-07T00:04:16.191Z,101695.02
2018-04-07T00:06:44.544Z,101687.70
2018-04-07T00:09:12.891Z,101698.45
2018-04-07T00:11:41.271Z,101685.92
2018-04-07T00:14:09.568Z,101694.28
2018-04-07T00:16:38.654Z,101697.59
2018-04-07T00:19:07.475Z,101683.11
2018-04-07T00:21:35.901Z,101684.84
2018-04-07T00:24:04.223Z,101668.68
2018-04-07T00:26:32.675Z,101685.95
2018-04-07T00:29:01.025Z,101660.67
2018-04-07T00:31:29.376Z,101665.48
2018-04-07T00:33:57.752Z,101656.78
2018-04-07T00:36:26.131Z,101666.02
2018-04-07T00:38:54.471Z,101657.35
2018-04-07T00:41:23.131Z,101669.67
2018-04-07T00:43:51.431Z,101656.42
2018-04-07T00:46:19.792Z,101674.72
2018-04-07T00:48:48.178Z,101673.04
2018-04-07T00:51:16.543Z,101662.95
2018-04-07T00:53:44.978Z,101668.85
2018-04-07T00:56:13.456Z,101662.52
2018-04-07T00:58:41.889Z,101669.31
2018-04-07T01:01:10.212Z,101658.05
2018-04-07T01:03:38.967Z,101667.93
2018-04-07T01:06:07.316Z,101679.13
2018-04-07T01:08:35.736Z,101673.17
2018-04-07T01:11:04.181Z,101670.38
2018-04-07T01:13:32.589Z,101678.48
2018-04-07T01:16:00.912Z,101679.39
2018-04-07T01:18:29.362Z,101676.12
2018-04-07T01:20:57.746Z,101678.00
2018-04-07T01:23:26.228Z,101666.41
2018-04-07T01:25:55.524Z,101666.98
2018-04-07T01:28:23.905Z,101669.38
2018-04-07T01:30:52.246Z,101668.39
2018-04-07T01:33:21.096Z,101669.38
2018-04-07T01:35:50.191Z,101664.73
2018-04-07T01:38:18.495Z,101668.77
2018-04-07T01:40:46.845Z,101671.55
2018-04-07T01:43:15.971Z,101674.45
2018-04-07T01:45:44.299Z,101671.92
2018-04-07T01:48:12.723Z,101660.72
2018-04-07T01:50:41.058Z,101663.58
2018-04-07T01:53:09.400Z,101659.20
2018-04-07T01:55:37.736Z,101659.59
2018-04-07T01:58:06.814Z,101651.48
2018-04-07T02:00:35.129Z,101648.32
2018-04-07T02:03:03.525Z,101647.93
2018-04-07T02:05:31.868Z,101655.54
2018-04-07T02:08:00.959Z,101653.56
2018-04-07T02:10:30.194Z,101650.30
2018-04-07T02:12:58.528Z,101651.95
2018-04-07T02:15:27.655Z,101642.95
2018-04-07T02:17:56.029Z,101645.16
2018-04-07T02:20:24.353Z,101640.77
2018-04-07T02:22:52.692Z,101635.75
2018-04-07T02:25:21.067Z,101633.73
2018-04-07T02:27:49.453Z,101642.63
2018-04-07T02:30:17.793Z,101634.84
2018-04-07T02:32:46.720Z,101629.05
2018-04-07T02:35:15.672Z,101635.42
2018-04-07T02:37:44.020Z,101639.70
2018-04-07T02:40:12.368Z,101633.62
2018-04-07T02:42:40.747Z,101630.46
2018-04-07T02:45:09.089Z,101631.16
2018-04-07T02:47:37.422Z,101631.44
2018-04-07T02:50:05.744Z,101624.67
2018-04-07T02:52:34.162Z,101625.22
2018-04-07T02:55:02.946Z,101623.84
2018-04-07T02:57:31.246Z,101617.82
2018-04-07T02:59:59.555Z,101619.58
2018-04-07T03:02:27.916Z,101613.23
2018-04-07T03:04:56.256Z,101612.34
2018-04-07T03:07:24.591Z,101613.17
2018-04-07T03:09:52.929Z,101600.52
2018-04-07T03:12:21.244Z,101608.44
2018-04-07T03:14:49.555Z,101603.06
2018-04-07T03:17:18.751Z,101607.30
2018-04-07T03:19:47.864Z,101596.35
2018-04-07T03:22:16.193Z,101606.98
2018-04-07T03:24:44.527Z,101607.16
2018-04-07T03:27:12.855Z,101604.73
2018-04-07T03:29:41.212Z,101603.83
2018-04-07T03:32:09.565Z,101591.69
2018-04-07T03:34:37.919Z,101592.44
2018-04-07T03:37:06.391Z,101603.30
2018-04-07T03:39:34.938Z,101592.63
2018-04-07T03:42:03.264Z,101596.85
2018-04-07T03:44:32.342Z,101591.47
2018-04-07T03:47:00.707Z,101599.61
2018-04-07T03:49:29.041Z,101600.22
2018-04-07T03:51:57.385Z,101605.18
2018-04-07T03:54:26.497Z,101599.78
2018-04-07T03:56:55.566Z,101597.05
2018-04-07T03:59:23.887Z,101591.90
2018-04-07T04:01:52.511Z,101589.46
2018-04-07T04:04:20.875Z,101596.31
2018-04-07T04:06:49.182Z,101605.25
2018-04-07T04:09:17.538Z,101596.95
2018-04-07T04:11:45.870Z,101600.70
2018-04-07T04:14:14.959Z,101597.81
2018-04-07T04:16:44.100Z,101593.80
2018-04-07T04:19:12.438Z,101595.07
2018-04-07T04:21:40.790Z,101602.17
2018-04-07T04:24:09.222Z,101597.13
2018-04-07T04:26:37.535Z,101591.07
2018-04-07T04:29:05.852Z,101591.80
2018-04-07T04:31:35.040Z,101581.52
2018-04-07T04:34:03.367Z,101592.62
2018-04-07T04:36:31.717Z,101583.18
2018-04-07T04:39:00.150Z,101581.88
2018-04-07T04:41:28.487Z,101575.45
2018-04-07T04:43:56.840Z,101573.06
2018-04-07T04:46:25.294Z,101565.45
2018-04-07T04:48:53.637Z,101563.42
2018-04-07T04:51:21.957Z,101568.14
2018-04-07T04:53:50.316Z,101560.38
2018-04-07T04:56:18.661Z,101558.23
2018-04-07T04:58:46.970Z,101561.42
2018-04-07T05:01:15.311Z,101554.01
2018-04-07T05:03:43.680Z,101560.07
2018-04-07T05:06:12.001Z,101552.67
2018-04-07T05:08:40.514Z,101550.00
2018-04-07T05:11:08.834Z,101552.41
2018-04-07T05:13:37.912Z,101553.59
2018-04-07T05:16:07.036Z,101556.40
2018-04-07T05:18:35.379Z,101543.98
2018-04-07T05:21:03.752Z,101546.53
2018-04-07T05:23:32.902Z,101551.81
2018-04-07T05:26:01.249Z,101549.48
2018-04-07T05:28:29.592Z,101544.09
2018-04-07T05:30:58.152Z,101554.38
2018-04-07T05:33:26.473Z,101553.07
2018-04-07T05:35:54.846Z,101547.77
2018-04-07T05:38:24.033Z,101543.30
2018-04-07T05:40:52.378Z,101549.05
2018-04-07T05:43:20.713Z,101555.22
2018-04-07T05:45:49.896Z,101555.53
2018-04-07T05:48:18.236Z,101548.39
2018-04-07T05:50:46.571Z,101553.33
2018-04-07T05:53:15.814Z,101535.65
2018-04-07T05:55:44.182Z,101551.52
2018-04-07T05:58:12.524Z,101544.50
2018-04-07T06:00:41.667Z,101543.85
2018-04-07T06:03:10.079Z,101532.59
2018-04-07T06:05:38.421Z,101537.89
2018-04-07T06:08:06.816Z,101535.86
2018-04-07T06:10:35.253Z,101539.68
2018-04-07T06:13:04.424Z,101548.39
2018-04-07T06:15:33.681Z,101531.84
2018-04-07T06:18:02.004Z,101542.16
2018-04-07T06:20:30.343Z,101531.15
2018-04-07T06:22:58.700Z,101531.33
2018-04-07T06:25:27.034Z,101526.61
2018-04-07T06:27:55.380Z,101522.44
2018-04-07T06:30:23.747Z,101524.31
2018-04-07T06:32:52.081Z,101517.31
2018-04-07T06:35:21.201Z,101515.84
2018-04-07T06:37:50.906Z,101512.78
2018-04-07T06:40:19.978Z,101519.98
2018-04-07T06:42:48.331Z,101512.93
2018-04-07T06:45:16.774Z,101511.28
2018-04-07T06:47:45.135Z,101507.86
2018-04-07T06:50:14.233Z,101502.80
2018-04-07T06:52:43.372Z,101500.41
2018-04-07T06:55:11.723Z,101503.20
2018-04-07T06:57:40.800Z,101494.28
2018-04-07T07:00:09.328Z,101492.61
2018-04-07T07:02:37.672Z,101487.78
2018-04-07T07:05:06.776Z,101482.66
2018-04-07T07:07:35.177Z,101475.02
2018-04-07T07:10:03.521Z,101478.98
2018-04-07T07:12:32.608Z,101481.22
2018-04-07T07:15:01.747Z,101470.30
2018-04-07T07:17:30.093Z,101483.01
2018-04-07T07:19:59.177Z,101476.98
2018-04-07T07:22:28.004Z,101476.93
2018-04-07T07:24:56.310Z,101470.73
2018-04-07T07:27:24.712Z,101457.92
2018-04-07T07:29:53.133Z,101454.50
2018-04-07T07:32:21.454Z,101461.02
2018-04-07T07:34:49.797Z,101450.79
2018-04-07T07:37:18.180Z,101441.52
2018-04-07T07:39:46.576Z,101440.08
2018-04-07T07:42:14.930Z,101433.09
2018-04-07T07:44:43.412Z,101436.46
2018-04-07T07:47:11.758Z,101435.94
2018-04-07T07:49:40.147Z,101427.62
2018-04-07T07:52:08.572Z,101426.61
2018-04-07T07:54:36.929Z,101419.81
2018-04-07T07:57:05.276Z,101428.31
2018-04-07T07:59:33.655Z,101422.55
2018-04-07T08:02:01.996Z,101403.30
2018-04-07T08:04:30.343Z,101402.25
2018-04-07T08:06:58.967Z,101397.09
2018-04-07T08:09:27.292Z,101386.25
2018-04-07T08:11:55.638Z,101421.80
2018-04-07T08:14:24.012Z,101422.78
2018-04-07T08:16:52.338Z,101396.69
2018-04-07T08:19:21.416Z,101407.80
2018-04-07T08:21:50.553Z,101408.66
2018-04-07T08:24:18.891Z,101392.52
2018-04-07T08:26:47.994Z,101380.00
2018-04-07T08:29:16.436Z,101373.59
2018-04-07T08:31:44.783Z,101378.34
2018-04-07T08:34:13.838Z,101378.37
2018-04-07T08:36:42.232Z,101378.59
2018-04-07T08:39:10.596Z,101373.03
2018-04-07T08:41:38.980Z,101365.73
2018-04-07T08:44:07.350Z,101362.87
2018-04-07T08:46:35.809Z,101381.00
2018-04-07T08:49:04.609Z,101367.02
2018-04-07T08:51:35.908Z,101358.26
2018-04-07T08:54:04.421Z,101373.40
2018-04-07T08:56:32.910Z,101390.79
2018-04-07T08:59:01.320Z,101381.55
2018-04-07T09:01:30.503Z,101393.10
2018-04-07T09:03:58.877Z,101385.83
2018-04-07T09:06:27.354Z,101382.56
2018-04-07T09:08:55.728Z,101380.38
2018-04-07T09:11:24.150Z,101388.58
2018-04-07T09:13:52.848Z,101374.46
2018-04-07T09:16:21.224Z,101369.94
2018-04-07T09:18:50.356Z,101381.13
2018-04-07T09:21:18.753Z,101381.77
2018-04-07T09:23:47.125Z,101394.67
2018-04-07T09:26:15.455Z,101380.55
2018-04-07T09:28:44.617Z,101369.50
2018-04-07T09:31:18.538Z,101372.55
2018-04-07T09:33:47.315Z,101368.85
2018-04-07T09:36:15.744Z,101350.47
2018-04-07T09:38:44.156Z,101356.72
2018-04-07T09:41:12.649Z,101350.41
2018-04-07T09:43:41.038Z,101346.09
2018-04-07T09:46:09.464Z,101343.53
2018-04-07T09:48:37.875Z,101337.78
2018-04-07T09:51:06.368Z,101336.02
2018-04-07T09:53:35.545Z,101326.47
2018-04-07T09:56:04.276Z,101323.94
2018-04-07T09:58:32.640Z,101327.20
2018-04-07T10:01:01.042Z,101320.45
2018-04-07T10:03:30.271Z,101332.73
2018-04-07T10:05:58.679Z,101313.61
2018-04-07T10:08:27.054Z,101325.17
2018-04-07T10:10:55.607Z,101298.75
2018-04-07T10:13:24.708Z,101293.31
2018-04-07T10:15:53.049Z,101296.94
2018-04-07T10:20:56.958Z,101285.63
2018-04-07T10:23:25.351Z,101289.93
2018-04-07T10:25:53.725Z,101279.58
2018-04-07T10:28:22.042Z,101272.91
2018-04-07T10:30:50.389Z,101268.48
2018-04-07T10:33:18.727Z,101275.80
2018-04-07T10:35:47.177Z,101260.89
2018-04-07T10:38:16.374Z,101271.53
2018-04-07T10:40:44.788Z,101256.66
2018-04-07T10:43:13.138Z,101255.77
2018-04-07T10:45:42.466Z,101256.72
2018-04-07T10:48:10.833Z,101270.66
2018-04-07T10:50:39.185Z,101257.29
2018-04-07T10:53:07.630Z,101275.54
2018-04-07T10:55:35.971Z,101262.71
2018-04-07T10:58:04.297Z,101260.19
2018-04-07T11:00:32.815Z,101254.75
2018-04-07T11:03:01.912Z,101252.72
2018-04-07T11:05:31.011Z,101264.65
2018-04-07T11:08:00.167Z,101261.43
2018-04-07T11:10:28.601Z,101252.40
2018-04-07T11:12:57.705Z,101246.94
2018-04-07T11:15:26.054Z,101244.61
2018-04-07T11:17:54.382Z,101225.34
2018-04-07T11:20:22.703Z,101232.13
2018-04-07T11:22:51.122Z,101234.17
2018-04-07T11:25:19.470Z,101229.64
2018-04-07T11:27:48.562Z,101224.29
2018-04-07T11:30:17.661Z,101214.00
2018-04-07T11:32:46.834Z,101198.86
2018-04-07T11:35:15.170Z,101211.16
2018-04-07T11:37:44.424Z,101201.75
2018-04-07T11:40:12.845Z,101211.14
2018-04-07T11:42:41.295Z,101208.27
2018-04-07T11:45:10.197Z,101202.66
2018-04-07T11:47:39.316Z,101202.70
2018-04-07T11:50:07.673Z,101211.45
2018-04-07T11:52:36.054Z,101214.15
2018-04-07T11:55:04.373Z,101211.62
2018-04-07T11:57:32.869Z,101206.52
2018-04-07T12:00:01.221Z,101211.75
2018-04-07T12:02:29.651Z,101204.83
2018-04-07T12:04:58.780Z,101194.08
2018-04-07T12:07:27.292Z,101185.95
2018-04-07T12:09:55.642Z,101188.39
2018-04-07T12:12:24.013Z,101220.91
2018-04-07T12:14:52.542Z,101194.28
2018-04-07T12:17:20.907Z,101182.02
2018-04-07T12:19:49.264Z,101197.38
2018-04-07T12:22:17.733Z,101191.07
2018-04-07T12:24:46.099Z,101183.36
2018-04-07T12:27:15.212Z,101178.44
2018-04-07T12:29:44.520Z,101176.13
2018-04-07T12:32:12.929Z,101168.95
2018-04-07T12:34:41.281Z,101169.34
2018-04-07T12:37:09.805Z,101165.27
2018-04-07T12:39:38.223Z,101157.30
2018-04-07T12:42:12.865Z,101164.33
2018-04-07T12:44:41.286Z,101162.54
2018-04-07T12:47:09.794Z,101159.86
2018-04-07T12:49:38.502Z,101140.59
2018-04-07T12:52:06.875Z,101147.52
2018-04-07T12:54:35.250Z,101156.21
2018-04-07T12:57:03.764Z,101145.62
2018-04-07T12:59:32.169Z,101130.36
2018-04-07T13:02:00.574Z,101136.56
2018-04-07T13:04:29.259Z,101130.83
2018-04-07T13:07:00.431Z,101132.18
2018-04-07T13:09:28.793Z,101131.23
2018-04-07T13:11:57.246Z,101119.54
2018-04-07T13:14:25.676Z,101144.77
2018-04-07T13:16:54.128Z,101120.38
2018-04-07T13:19:22.730Z,101114.18
2018-04-07T13:21:51.112Z,101114.65
2018-04-07T13:24:20.224Z,101107.20
2018-04-07T13:26:48.559Z,101108.19
2018-04-07T13:29:16.880Z,101102.88
2018-04-07T13:31:46.002Z,101110.70
2018-04-07T13:34:14.720Z,101106.91
2018-04-07T13:36:43.104Z,101090.72
2018-04-07T13:39:11.563Z,101115.27
2018-04-07T13:41:39.925Z,101102.44
2018-04-07T13:44:08.283Z,101080.39
2018-04-07T13:46:36.672Z,101091.11
2018-04-07T13:49:05.027Z,101080.96
2018-04-07T13:51:34.150Z,101080.34
2018-04-07T13:54:02.539Z,101078.80
2018-04-07T13:56:31.011Z,101070.34
2018-04-07T13:58:59.393Z,101069.98
2018-04-07T14:01:27.788Z,101073.84
2018-04-07T14:03:56.173Z,101065.73
2018-04-07T14:06:24.498Z,101063.63
2018-04-07T14:08:52.815Z,101064.13
2018-04-07T14:11:21.225Z,101064.55
2018-04-07T14:13:49.561Z,101084.47
2018-04-07T14:16:17.926Z,101054.92
2018-04-07T14:18:46.409Z,101049.61
2018-04-07T14:21:14.757Z,101054.30
2018-04-07T14:23:43.256Z,101046.63
2018-04-07T14:26:11.669Z,101039.94
2018-04-07T14:28:40.029Z,101045.24
2018-04-07T14:31:09.130Z,101041.80
2018-04-07T14:33:37.505Z,101047.92
2018-04-07T14:36:05.881Z,101034.95
2018-04-07T14:38:34.973Z,101035.56
2018-04-07T14:41:04.439Z,101025.64
2018-04-07T14:43:32.794Z,101026.14
2018-04-07T14:46:01.145Z,101021.77
2018-04-07T14:48:29.526Z,101021.84
2018-04-07T14:50:58.615Z,101014.56
2018-04-07T14:53:27.715Z,101013.02
2018-04-07T14:55:56.187Z,101010.05
2018-04-07T14:58:25.323Z,101013.29
2018-04-07T15:00:53.692Z,101024.13
2018-04-07T15:03:22.180Z,101019.66
2018-04-07T15:05:50.545Z,101013.73
2018-04-07T15:08:18.900Z,101008.80
2018-04-07T15:10:48.069Z,101013.99
2018-04-07T15:13:16.442Z,101019.84
2018-04-07T15:15:44.820Z,101012.29
2018-04-07T15:18:13.204Z,101017.27
2018-04-07T15:20:41.578Z,101013.18
2018-04-07T15:23:09.910Z,101023.41
2018-04-07T15:25:39.135Z,101020.17
2018-04-07T15:28:07.489Z,101042.66
2018-04-07T15:30:36.586Z,101015.06
2018-04-07T15:33:05.850Z,101014.41
2018-04-07T15:35:34.254Z,101014.88
2018-04-07T15:38:02.649Z,101015.52
2018-04-07T15:40:32.594Z,101003.31
2018-04-07T15:43:01.237Z,101005.91
2018-04-07T15:45:30.325Z,100998.94
2018-04-07T15:47:59.119Z,100998.34
2018-04-07T15:50:28.216Z,100987.86
2018-04-07T15:52:57.316Z,100988.28
2018-04-07T15:55:26.524Z,100995.53
2018-04-07T15:57:54.963Z,100995.59
2018-04-07T16:00:23.351Z,100991.30
2018-04-07T16:02:51.735Z,100990.06
2018-04-07T16:05:20.841Z,100994.28
2018-04-07T16:07:49.205Z,100999.06
2018-04-07T16:10:17.874Z,100979.05
2018-04-07T16:12:46.210Z,100978.55
2018-04-07T16:15:14.565Z,100976.89
2018-04-07T16:17:43.734Z,100978.35
2018-04-07T16:20:12.224Z,100982.72
2018-04-07T16:22:40.559Z,100978.81
2018-04-07T16:25:08.959Z,100983.44
2018-04-07T16:27:37.366Z,100979.65
2018-04-07T16:30:05.737Z,100984.55
2018-04-07T16:32:34.253Z,100981.08
2018-04-07T16:35:02.649Z,100984.64
2018-04-07T16:37:30.978Z,100973.24
2018-04-07T16:39:59.345Z,100981.60
2018-04-07T16:42:27.658Z,100985.02
2018-04-07T16:44:56.785Z,100971.05
2018-04-07T16:47:25.142Z,100979.56
2018-04-07T16:49:54.300Z,100967.09
2018-04-07T16:52:22.820Z,100965.38
2018-04-07T16:54:51.215Z,100980.34
2018-04-07T16:57:20.361Z,100976.30
2018-04-07T16:59:48.740Z,100970.97
2018-04-07T17:02:17.104Z,100968.72
2018-04-07T17:04:45.457Z,100962.48
2018-04-07T17:07:13.828Z,100966.92
2018-04-07T17:09:42.968Z,100955.37
2018-04-07T17:12:11.349Z,100958.27
2018-04-07T17:14:39.689Z,100962.59
2018-04-07T17:17:08.325Z,100979.17
2018-04-07T17:19:36.687Z,100963.91
2018-04-07T17:22:05.056Z,100961.05
2018-04-07T17:24:33.421Z,100966.65
2018-04-07T17:27:01.776Z,100963.03
2018-04-07T17:29:30.896Z,100960.73
2018-04-07T17:31:59.255Z,100962.44
2018-04-07T17:34:28.388Z,100961.28
2018-04-07T17:36:56.729Z,100957.73
2018-04-07T17:39:25.950Z,100962.11
2018-04-07T17:41:54.309Z,100964.25
2018-04-07T17:44:23.432Z,100967.93
2018-04-07T17:46:51.802Z,100963.12
2018-04-07T17:49:20.184Z,100958.27
2018-04-07T17:51:48.527Z,100958.33
2018-04-07T17:54:16.905Z,100960.68
2018-04-07T17:56:46.025Z,100966.17
2018-04-07T17:59:15.125Z,100962.59
2018-04-07T18:01:44.431Z,100959.31
2018-04-07T18:04:12.852Z,100949.15
2018-04-07T18:06:41.267Z,100958.28
2018-04-07T18:09:10.436Z,100950.06
2018-04-07T18:11:38.820Z,100948.16
2018-04-07T18:14:07.156Z,100946.36
2018-04-07T18:16:35.508Z,100949.13
2018-04-07T18:19:04.599Z,100949.24
2018-04-07T18:21:33.716Z,100944.48
2018-04-07T18:24:02.497Z,100943.02
2018-04-07T18:26:30.845Z,100947.45
2018-04-07T18:28:59.144Z,100948.84
2018-04-07T18:31:28.296Z,100945.05
2018-04-07T18:33:56.619Z,100947.38
2018-04-07T18:36:24.977Z,100953.70
2018-04-07T18:38:53.348Z,100948.86
2018-04-07T18:41:21.801Z,100944.84
2018-04-07T18:43:50.130Z,100950.97
2018-04-07T18:46:19.173Z,100940.95
2018-04-07T18:48:47.520Z,100948.65
2018-04-07T18:51:15.861Z,100955.71
2018-04-07T18:53:44.241Z,100949.59
2018-04-07T18:56:16.932Z,100953.80
2018-04-07T18:58:46.109Z,100962.71
2018-04-07T19:01:14.515Z,100959.33
2018-04-07T19:03:43.619Z,100961.30
2018-04-07T19:06:13.445Z,100965.72
2018-04-07T19:08:41.790Z,100962.45
2018-04-07T19:13:38.708Z,100976.11
2018-04-07T19:16:07.075Z,100964.00
2018-04-07T19:18:35.487Z,100962.86
2018-04-07T19:21:03.850Z,100974.48
2018-04-07T19:23:32.212Z,100973.95
2018-04-07T19:26:01.077Z,100967.28
2018-04-07T19:28:30.538Z,100967.53
2018-04-07T19:30:58.870Z,100968.34
2018-04-07T19:33:27.969Z,100971.39
2018-04-07T19:35:57.145Z,100972.31
2018-04-07T19:38:25.489Z,100970.36
2018-04-07T19:40:53.837Z,100970.10
2018-04-07T19:43:22.217Z,100969.45
2018-04-07T19:45:51.313Z,100973.73
2018-04-07T19:48:20.000Z,100963.41
2018-04-07T19:50:48.755Z,100967.78
2018-04-07T19:53:17.149Z,100977.08
2018-04-07T19:55:46.256Z,100979.24
2018-04-07T19:58:14.665Z,100970.92
2018-04-07T20:00:43.014Z,100974.35
2018-04-07T20:03:12.137Z,100975.92
2018-04-07T20:05:40.588Z,100980.56
2018-04-07T20:08:09.705Z,100976.81
2018-04-07T20:10:38.092Z,100980.56
2018-04-07T20:13:06.538Z,100979.98
2018-04-07T20:15:34.886Z,100977.22
2018-04-07T20:18:03.304Z,100976.31
2018-04-07T20:20:31.716Z,100973.92
2018-04-07T20:23:00.035Z,100972.88
2018-04-07T20:25:28.371Z,100975.99
2018-04-07T20:27:56.784Z,100976.83
2018-04-07T20:30:25.132Z,100974.03
2018-04-07T20:32:53.467Z,100975.28
2018-04-07T20:35:22.701Z,100969.20
2018-04-07T20:37:51.069Z,100971.97
2018-04-07T20:40:19.452Z,100966.14
2018-04-07T20:42:47.798Z,100961.20
2018-04-07T20:45:16.137Z,100957.48
2018-04-07T20:47:44.487Z,100962.08
2018-04-07T20:50:12.873Z,100955.05
2018-04-07T20:52:41.236Z,100953.58
2018-04-07T20:55:09.604Z,100955.53
2018-04-07T20:57:38.837Z,100948.72
2018-04-07T21:00:07.187Z,100946.61
2018-04-07T21:02:36.288Z,100943.52
2018-04-07T21:05:04.647Z,100948.93
2018-04-07T21:07:33.044Z,100936.45
2018-04-07T21:10:02.168Z,100939.41
2018-04-07T21:12:30.544Z,100934.22
2018-04-07T21:14:58.895Z,100932.64
2018-04-07T21:17:27.994Z,100932.05
2018-04-07T21:19:57.272Z,100925.12
2018-04-07T21:22:25.622Z,100919.73
2018-04-07T21:24:54.742Z,100926.58
2018-04-07T21:27:23.140Z,100927.56
2018-04-07T21:29:52.308Z,100922.61
2018-04-07T21:32:20.717Z,100921.09
2018-04-07T21:34:49.849Z,100934.80
2018-04-07T21:37:18.192Z,100927.78
2018-04-07T21:39:46.537Z,100926.42
2018-04-07T21:42:15.190Z,100920.83
2018-04-07T21:44:43.526Z,100922.47
2018-04-07T21:47:11.847Z,100916.45
2018-04-07T21:49:40.517Z,100916.31
2018-04-07T21:52:08.877Z,100920.36
2018-04-07T21:54:37.214Z,100919.47
2018-04-07T21:57:05.629Z,100918.33
2018-04-07T21:59:33.984Z,100914.44
2018-04-07T22:02:02.371Z,100908.27
2018-04-07T22:04:31.096Z,100909.39
2018-04-07T22:06:59.479Z,100909.59
2018-04-07T22:09:27.829Z,100905.41
2018-04-07T22:11:56.233Z,100904.70
2018-04-07T22:14:25.324Z,100911.28
2018-04-07T22:16:54.433Z,100912.22
2018-04-07T22:19:23.580Z,100917.67
2018-04-07T22:21:51.937Z,100909.08
2018-04-07T22:24:20.296Z,100919.59
2018-04-07T22:26:49.075Z,100910.20
2018-04-07T22:29:17.412Z,100909.19
2018-04-07T22:31:45.787Z,100901.58
2018-04-07T22:34:14.173Z,100896.19
2018-04-07T22:36:42.532Z,100907.27
2018-04-07T22:39:10.849Z,100895.81
2018-04-07T22:41:39.990Z,100902.29
2018-04-07T22:44:08.382Z,100889.98
2018-04-07T22:46:36.776Z,100910.09
2018-04-07T22:49:05.167Z,100901.29
2018-04-07T22:51:33.765Z,100899.61
2018-04-07T22:54:02.894Z,100903.58
2018-04-07T22:56:31.302Z,100891.52
2018-04-07T22:58:59.644Z,100902.49
2018-04-07T23:01:28.712Z,100891.33
2018-04-07T23:03:57.061Z,100898.66
2018-04-07T23:06:25.461Z,100896.64
2018-04-07T23:08:53.809Z,100893.83
2018-04-07T23:11:22.412Z,100894.05
2018-04-07T23:13:50.791Z,100899.95
2018-04-07T23:16:19.132Z,100897.15
2018-04-07T23:18:47.473Z,100896.44
2018-04-07T23:21:15.821Z,100885.59
2018-04-07T23:23:44.152Z,100886.08
2018-04-07T23:26:13.328Z,100882.21
2018-04-07T23:28:41.692Z,100877.48
2018-04-07T23:31:10.230Z,100879.74
2018-04-07T23:33:38.737Z,100881.00
2018-04-07T23:36:07.089Z,100875.89
2018-04-07T23:38:35.433Z,100876.83
2018-04-07T23:41:03.841Z,100878.25
2018-04-07T23:43:32.170Z,100876.23
2018-04-07T23:46:00.522Z,100878.89
2018-04-07T23:48:28.937Z,100873.66
2018-04-07T23:50:57.313Z,100872.30
2018-04-07T23:53:26.018Z,100877.19
2018-04-07T23:55:55.625Z,100874.28
2018-04-07T23:58:23.972Z,100872.73
